createdAt,value
2022-08-03T00:00:31.221Z,87.49
2022-08-03T00:01:31.205Z,88.40
2022-08-03T00:02:31.191Z,88.70
2022-08-03T00:03:31.230Z,88.20
2022-08-03T00:04:34.201Z,87.90
2022-08-03T00:05:31.161Z,88.40
2022-08-03T00:06:36.509Z,87.80
2022-08-03T00:07:32.122Z,88.00
2022-08-03T00:08:31.114Z,88.10
2022-08-03T00:09:35.825Z,87.90
2022-08-03T00:10:31.130Z,87.63
2022-08-03T00:11:31.083Z,87.54
2022-08-03T00:12:31.063Z,87.54
2022-08-03T00:13:31.045Z,88.14
2022-08-03T00:14:31.055Z,88.14
2022-08-03T00:15:31.034Z,88.04
2022-08-03T00:16:31.956Z,88.45
2022-08-03T00:17:30.997Z,88.65
2022-08-03T00:18:31.989Z,89.05
2022-08-03T00:19:30.976Z,89.15
2022-08-03T00:20:30.946Z,88.34
2022-08-03T00:21:30.946Z,87.94
2022-08-03T00:22:30.930Z,87.84
2022-08-03T00:23:51.716Z,87.34
2022-08-03T00:24:31.909Z,88.24
2022-08-03T00:25:30.898Z,88.60
2022-08-03T00:26:30.868Z,88.45
2022-08-03T00:27:32.534Z,88.95
2022-08-03T00:28:30.849Z,89.11
2022-08-03T00:29:30.860Z,88.90
2022-08-03T00:30:31.045Z,88.85
2022-08-03T00:31:52.777Z,89.25
2022-08-03T00:32:31.790Z,88.65
2022-08-03T00:33:30.790Z,88.24
2022-08-03T00:34:36.578Z,87.84
2022-08-03T00:35:49.234Z,88.75
2022-08-03T00:36:31.747Z,89.15
2022-08-03T00:37:40.688Z,89.19
2022-08-03T00:38:31.722Z,89.29
2022-08-03T00:39:30.712Z,88.68
2022-08-03T00:40:30.685Z,88.08
2022-08-03T00:41:30.683Z,89.19
2022-08-03T00:42:30.663Z,88.39
2022-08-03T00:43:30.655Z,88.28
2022-08-03T00:44:30.644Z,88.08
2022-08-03T00:45:30.626Z,87.78
2022-08-03T00:46:30.606Z,87.38
2022-08-03T00:47:30.603Z,87.27
2022-08-03T00:48:33.690Z,88.28
2022-08-03T00:49:30.628Z,88.99
2022-08-03T00:50:30.560Z,89.09
2022-08-03T00:51:30.536Z,89.59
2022-08-03T00:52:30.525Z,89.90
2022-08-03T00:53:30.515Z,90.20
2022-08-03T00:54:30.518Z,90.75
2022-08-03T00:55:30.501Z,90.85
2022-08-03T00:56:30.469Z,90.14
2022-08-03T00:57:30.462Z,89.23
2022-08-03T00:58:30.442Z,89.43
2022-08-03T00:59:30.456Z,90.34
2022-08-03T01:00:30.420Z,90.85
2022-08-03T01:01:32.493Z,91.05
2022-08-03T01:02:30.392Z,90.24
2022-08-03T01:03:30.389Z,89.74
2022-08-03T01:04:30.382Z,89.23
2022-08-03T01:05:30.368Z,88.93
2022-08-03T01:06:30.343Z,89.74
2022-08-03T01:07:30.322Z,90.14
2022-08-03T01:08:38.064Z,89.54
2022-08-03T01:09:30.336Z,89.74
2022-08-03T01:10:31.613Z,89.84
2022-08-03T01:11:30.602Z,89.13
2022-08-03T01:12:31.170Z,89.74
2022-08-03T01:14:01.290Z,89.94
2022-08-03T01:14:31.287Z,90.14
2022-08-03T01:15:30.245Z,89.84
2022-08-03T01:16:36.621Z,90.45
2022-08-03T01:17:31.225Z,90.45
2022-08-03T01:18:30.264Z,89.34
2022-08-03T01:19:30.178Z,88.32
2022-08-03T01:20:30.177Z,87.78
2022-08-03T01:21:30.182Z,87.72
2022-08-03T01:22:30.203Z,87.27
2022-08-03T01:23:30.128Z,87.48
2022-08-03T01:24:30.109Z,88.59
2022-08-03T01:25:37.524Z,89.50
2022-08-03T01:26:30.101Z,89.90
2022-08-03T01:27:30.372Z,90.41
2022-08-03T01:28:33.909Z,90.30
2022-08-03T01:29:30.391Z,89.84
2022-08-03T01:30:30.058Z,89.23
2022-08-03T01:31:30.293Z,89.13
2022-08-03T01:33:00.339Z,89.23
2022-08-03T01:33:31.050Z,88.83
2022-08-03T01:34:29.971Z,88.63
2022-08-03T01:35:30.199Z,88.12
2022-08-03T01:36:33.899Z,88.53
2022-08-03T01:37:29.990Z,88.23
2022-08-03T01:38:29.946Z,88.93
2022-08-03T01:39:30.754Z,89.43
2022-08-03T01:40:29.923Z,89.13
2022-08-03T01:41:30.303Z,88.93
2022-08-03T01:42:31.724Z,90.04
2022-08-03T01:44:27.264Z,89.94
2022-08-03T01:44:31.116Z,89.13
2022-08-03T01:45:29.966Z,89.23
2022-08-03T01:46:30.318Z,88.73
2022-08-03T01:47:29.833Z,88.79
2022-08-03T01:48:30.082Z,89.29
2022-08-03T01:49:40.054Z,88.99
2022-08-03T01:50:29.991Z,88.79
2022-08-03T01:51:57.839Z,89.29
2022-08-03T01:52:32.422Z,89.19
2022-08-03T01:53:30.418Z,88.79
2022-08-03T01:54:33.797Z,88.59
2022-08-03T01:55:29.986Z,88.68
2022-08-03T01:56:30.024Z,88.28
2022-08-03T01:57:29.939Z,88.08
2022-08-03T01:58:29.721Z,89.09
2022-08-03T01:59:30.684Z,88.79
2022-08-03T02:00:30.443Z,88.39
2022-08-03T02:02:29.142Z,88.59
2022-08-03T02:02:34.179Z,88.99
2022-08-03T02:03:29.728Z,88.39
2022-08-03T02:04:37.382Z,88.59
2022-08-03T02:05:29.797Z,87.58
2022-08-03T02:07:00.361Z,88.18
2022-08-03T02:07:30.557Z,88.68
2022-08-03T02:08:29.586Z,88.89
2022-08-03T02:09:30.274Z,88.89
2022-08-03T02:10:35.378Z,88.68
2022-08-03T02:11:30.545Z,88.79
2022-08-03T02:12:33.693Z,88.08
2022-08-03T02:13:30.343Z,88.99
2022-08-03T02:14:30.298Z,88.68
2022-08-03T02:15:30.450Z,90.41
2022-08-03T02:16:29.436Z,89.29
2022-08-03T02:17:38.504Z,90.00
2022-08-03T02:18:30.435Z,91.11
2022-08-03T02:19:33.783Z,92.62
2022-08-03T02:20:30.664Z,91.41
2022-08-03T02:21:57.112Z,91.71
2022-08-03T02:22:30.609Z,92.22
2022-08-03T02:23:30.152Z,91.31
2022-08-03T02:24:30.387Z,90.50
2022-08-03T02:25:29.646Z,90.00
2022-08-03T02:26:29.577Z,90.81
2022-08-03T02:27:34.719Z,91.97
2022-08-03T02:28:29.581Z,91.31
2022-08-03T02:29:39.653Z,92.02
2022-08-03T02:30:30.239Z,92.72
2022-08-03T02:31:29.238Z,92.02
2022-08-03T02:32:29.933Z,91.41
2022-08-03T02:33:29.953Z,91.01
2022-08-03T02:34:29.353Z,90.91
2022-08-03T02:35:30.399Z,92.32
2022-08-03T02:36:31.464Z,91.51
2022-08-03T02:37:30.146Z,91.82
2022-08-03T02:38:29.459Z,91.31
2022-08-03T02:39:29.428Z,91.51
2022-08-03T02:40:29.469Z,90.81
2022-08-03T02:41:29.850Z,90.20
2022-08-03T02:42:29.074Z,90.41
2022-08-03T02:43:29.996Z,91.31
2022-08-03T02:44:30.051Z,91.31
2022-08-03T02:45:29.188Z,90.70
2022-08-03T02:46:29.071Z,91.21
2022-08-03T02:47:53.926Z,90.81
2022-08-03T02:48:30.138Z,91.21
2022-08-03T02:49:49.540Z,91.31
2022-08-03T02:50:30.347Z,91.51
2022-08-03T02:51:29.369Z,91.61
2022-08-03T02:52:29.239Z,90.30
2022-08-03T02:53:29.320Z,90.10
2022-08-03T02:54:28.942Z,90.41
2022-08-03T02:55:33.276Z,89.70
2022-08-03T02:56:29.963Z,90.70
2022-08-03T02:57:29.210Z,90.41
2022-08-03T02:58:30.258Z,89.59
2022-08-03T02:59:28.932Z,88.89
2022-08-03T03:00:29.079Z,88.89
2022-08-03T03:01:29.120Z,89.50
2022-08-03T03:02:28.829Z,90.81
2022-08-03T03:03:28.936Z,90.20
2022-08-03T03:04:33.247Z,90.10
2022-08-03T03:05:53.052Z,90.91
2022-08-03T03:06:30.123Z,90.10
2022-08-03T03:07:29.447Z,91.31
2022-08-03T03:08:29.691Z,91.76
2022-08-03T03:09:29.228Z,91.76
2022-08-03T03:10:29.752Z,91.25
2022-08-03T03:11:33.027Z,91.25
2022-08-03T03:12:28.749Z,92.16
2022-08-03T03:13:31.432Z,91.86
2022-08-03T03:14:33.739Z,92.46
2022-08-03T03:15:30.025Z,91.15
2022-08-03T03:16:28.936Z,92.21
2022-08-03T03:17:28.624Z,91.39
2022-08-03T03:18:28.593Z,91.09
2022-08-03T03:19:28.670Z,91.35
2022-08-03T03:20:30.077Z,91.15
2022-08-03T03:21:28.546Z,91.70
2022-08-03T03:22:33.245Z,91.66
2022-08-03T03:23:28.558Z,91.66
2022-08-03T03:24:28.517Z,91.60
2022-08-03T03:25:28.660Z,90.49
2022-08-03T03:26:28.530Z,91.66
2022-08-03T03:27:28.749Z,92.10
2022-08-03T03:28:28.632Z,92.50
2022-08-03T03:29:28.456Z,93.12
2022-08-03T03:30:28.665Z,93.12
2022-08-03T03:31:28.693Z,92.91
2022-08-03T03:32:28.421Z,92.30
2022-08-03T03:33:28.782Z,93.01
2022-08-03T03:34:28.685Z,93.21
2022-08-03T03:35:29.066Z,92.30
2022-08-03T03:36:28.750Z,92.50
2022-08-03T03:37:28.712Z,92.61
2022-08-03T03:38:28.385Z,93.52
2022-08-03T03:39:28.340Z,94.02
2022-08-03T03:40:28.352Z,93.01
2022-08-03T03:41:33.866Z,93.62
2022-08-03T03:42:28.320Z,93.21
2022-08-03T03:43:28.260Z,93.21
2022-08-03T03:44:28.241Z,92.81
2022-08-03T03:45:28.215Z,93.32
2022-08-03T03:46:28.218Z,93.52
2022-08-03T03:47:32.979Z,93.12
2022-08-03T03:48:28.290Z,92.21
2022-08-03T03:49:28.235Z,92.81
2022-08-03T03:50:29.210Z,92.30
2022-08-03T03:51:28.438Z,91.60
2022-08-03T03:52:28.192Z,91.39
2022-08-03T03:53:28.344Z,92.00
2022-08-03T03:54:29.298Z,92.71
2022-08-03T03:55:28.400Z,91.70
2022-08-03T03:56:29.079Z,91.60
2022-08-03T03:57:28.129Z,91.39
2022-08-03T03:58:28.119Z,91.09
2022-08-03T03:59:28.865Z,92.21
2022-08-03T04:00:28.167Z,92.21
2022-08-03T04:01:28.043Z,92.50
2022-08-03T04:02:28.117Z,91.50
2022-08-03T04:03:28.003Z,90.69
2022-08-03T04:04:28.030Z,91.90
2022-08-03T04:05:28.045Z,91.70
2022-08-03T04:06:28.001Z,92.46
2022-08-03T04:07:27.955Z,92.46
2022-08-03T04:08:28.136Z,91.76
2022-08-03T04:09:30.675Z,92.06
2022-08-03T04:10:28.223Z,91.96
2022-08-03T04:11:29.266Z,92.26
2022-08-03T04:12:27.906Z,91.55
2022-08-03T04:13:28.116Z,91.86
2022-08-03T04:14:28.332Z,91.96
2022-08-03T04:15:28.200Z,91.21
2022-08-03T04:16:28.839Z,90.70
2022-08-03T04:17:27.827Z,90.20
2022-08-03T04:18:28.078Z,90.10
2022-08-03T04:19:27.843Z,90.20
2022-08-03T04:20:28.079Z,90.41
2022-08-03T04:21:27.775Z,89.90
2022-08-03T04:22:27.730Z,90.00
2022-08-03T04:23:27.824Z,89.79
2022-08-03T04:24:27.709Z,89.86
2022-08-03T04:25:28.066Z,89.25
2022-08-03T04:26:27.661Z,90.56
2022-08-03T04:27:27.758Z,90.36
2022-08-03T04:28:30.807Z,89.65
2022-08-03T04:29:28.596Z,89.45
2022-08-03T04:30:27.748Z,89.86
2022-08-03T04:31:27.725Z,90.26
2022-08-03T04:32:28.299Z,89.25
2022-08-03T04:33:29.403Z,89.71
2022-08-03T04:34:27.726Z,89.91
2022-08-03T04:35:58.647Z,89.41
2022-08-03T04:36:28.560Z,89.91
2022-08-03T04:37:27.606Z,90.11
2022-08-03T04:38:27.506Z,89.81
2022-08-03T04:39:27.520Z,89.51
2022-08-03T04:40:29.785Z,90.01
2022-08-03T04:41:28.163Z,89.71
2022-08-03T04:42:27.474Z,89.51
2022-08-03T04:43:27.493Z,89.81
2022-08-03T04:44:28.328Z,89.21
2022-08-03T04:45:27.515Z,89.71
2022-08-03T04:46:27.452Z,89.01
2022-08-03T04:47:27.646Z,89.47
2022-08-03T04:48:27.379Z,89.97
2022-08-03T04:49:28.231Z,89.37
2022-08-03T04:50:27.382Z,89.37
2022-08-03T04:51:27.692Z,89.77
2022-08-03T04:52:27.349Z,90.28
2022-08-03T04:53:27.490Z,90.28
2022-08-03T04:54:27.409Z,89.77
2022-08-03T04:55:27.298Z,90.37
2022-08-03T04:56:27.503Z,89.47
2022-08-03T04:57:27.294Z,89.06
2022-08-03T04:58:27.278Z,89.26
2022-08-03T04:59:27.250Z,89.03
2022-08-03T05:00:27.353Z,89.63
2022-08-03T05:01:27.299Z,89.03
2022-08-03T05:02:27.464Z,88.82
2022-08-03T05:03:27.239Z,89.23
2022-08-03T05:04:27.198Z,90.03
2022-08-03T05:05:50.206Z,89.43
2022-08-03T05:06:28.193Z,89.93
2022-08-03T05:07:35.386Z,89.32
2022-08-03T05:08:28.449Z,89.32
2022-08-03T05:09:52.229Z,89.93
2022-08-03T05:10:28.416Z,89.53
2022-08-03T05:11:27.454Z,89.39
2022-08-03T05:12:32.072Z,90.09
2022-08-03T05:13:28.072Z,89.59
2022-08-03T05:14:28.051Z,89.59
2022-08-03T05:15:27.110Z,89.39
2022-08-03T05:16:27.309Z,88.98
2022-08-03T05:17:27.018Z,88.98
2022-08-03T05:18:26.971Z,89.08
2022-08-03T05:19:26.986Z,89.39
2022-08-03T05:20:27.011Z,89.34
2022-08-03T05:21:26.945Z,88.64
2022-08-03T05:22:27.943Z,88.34
2022-08-03T05:23:26.924Z,88.64
2022-08-03T05:24:26.999Z,88.43
2022-08-03T05:25:27.498Z,88.03
2022-08-03T05:26:26.893Z,87.43
2022-08-03T05:27:26.888Z,87.53
2022-08-03T05:28:26.911Z,87.43
2022-08-03T05:29:26.858Z,87.29
2022-08-03T05:30:33.149Z,87.29
2022-08-03T05:31:27.852Z,87.29
2022-08-03T05:32:27.291Z,87.19
2022-08-03T05:33:26.905Z,87.49
2022-08-03T05:34:26.770Z,86.88
2022-08-03T05:35:57.751Z,86.94
2022-08-03T05:36:28.766Z,87.04
2022-08-03T05:37:26.749Z,86.65
2022-08-03T05:38:28.587Z,86.04
2022-08-03T05:39:26.738Z,86.14
2022-08-03T05:40:26.905Z,86.04
2022-08-03T05:41:37.089Z,86.34
2022-08-03T05:42:28.642Z,86.04
2022-08-03T05:43:26.638Z,86.34
2022-08-03T05:44:26.694Z,85.94
2022-08-03T05:45:28.532Z,85.74
2022-08-03T05:46:26.646Z,85.80
2022-08-03T05:47:26.602Z,85.60
2022-08-03T05:48:26.578Z,84.80
2022-08-03T05:49:27.025Z,85.50
2022-08-03T05:50:26.873Z,85.30
2022-08-03T05:51:26.830Z,84.89
2022-08-03T05:52:39.211Z,84.69
2022-08-03T05:53:26.613Z,84.29
2022-08-03T05:54:26.511Z,84.45
2022-08-03T05:55:27.544Z,83.85
2022-08-03T05:56:27.291Z,83.95
2022-08-03T05:57:26.791Z,83.95
2022-08-03T05:58:26.479Z,83.95
2022-08-03T05:59:38.103Z,83.95
2022-08-03T06:00:27.450Z,83.91
2022-08-03T06:01:26.464Z,83.01
2022-08-03T06:02:27.259Z,82.70
2022-08-03T06:03:27.136Z,83.01
2022-08-03T06:04:26.398Z,82.90
2022-08-03T06:05:26.364Z,82.81
2022-08-03T06:06:30.514Z,82.31
2022-08-03T06:07:27.347Z,82.57
2022-08-03T06:08:26.370Z,82.37
2022-08-03T06:10:34.108Z,82.26
2022-08-03T06:10:35.550Z,82.37
2022-08-03T06:11:27.326Z,82.37
2022-08-03T06:12:26.354Z,81.96
2022-08-03T06:13:26.265Z,81.36
2022-08-03T06:14:26.255Z,81.42
2022-08-03T06:15:26.226Z,80.92
2022-08-03T06:16:27.087Z,81.32
2022-08-03T06:17:26.660Z,81.12
2022-08-03T06:18:26.199Z,81.23
2022-08-03T06:19:26.173Z,80.82
2022-08-03T06:20:28.631Z,80.58
2022-08-03T06:21:27.159Z,80.48
2022-08-03T06:22:26.171Z,80.08
2022-08-03T06:23:53.433Z,80.18
2022-08-03T06:24:27.103Z,80.28
2022-08-03T06:25:26.122Z,80.15
2022-08-03T06:26:26.112Z,79.24
2022-08-03T06:27:36.467Z,79.24
2022-08-03T06:29:27.363Z,79.34
2022-08-03T06:30:26.331Z,79.64
2022-08-03T06:31:26.218Z,79.24
2022-08-03T06:32:27.011Z,78.24
2022-08-03T06:33:48.238Z,78.41
2022-08-03T06:34:32.731Z,78.20
2022-08-03T06:35:27.030Z,78.10
2022-08-03T06:36:25.954Z,78.20
2022-08-03T06:37:25.952Z,78.20
2022-08-03T06:38:25.941Z,78.10
2022-08-03T06:39:26.063Z,78.56
2022-08-03T06:40:25.929Z,78.36
2022-08-03T06:41:25.893Z,77.47
2022-08-03T06:42:25.879Z,77.67
2022-08-03T06:43:26.213Z,77.56
2022-08-03T06:44:26.102Z,77.36
2022-08-03T06:45:25.862Z,77.23
2022-08-03T06:46:26.832Z,76.63
2022-08-03T06:47:25.890Z,76.93
2022-08-03T06:48:25.796Z,76.43
2022-08-03T06:49:25.849Z,76.43
2022-08-03T06:50:26.306Z,76.33
2022-08-03T06:52:03.824Z,76.39
2022-08-03T06:52:37.847Z,76.59
2022-08-03T06:53:27.701Z,76.49
2022-08-03T06:54:25.736Z,76.09
2022-08-03T06:55:25.738Z,74.89
2022-08-03T06:56:25.729Z,74.76
2022-08-03T06:57:26.118Z,74.96
2022-08-03T06:58:25.747Z,74.26
2022-08-03T07:00:10.362Z,75.26
2022-08-03T07:00:26.696Z,74.85
2022-08-03T07:01:25.680Z,73.96
2022-08-03T07:02:28.213Z,74.12
2022-08-03T07:03:25.647Z,73.72
2022-08-03T07:04:25.641Z,73.32
2022-08-03T07:05:25.680Z,73.88
2022-08-03T07:06:25.595Z,73.49
2022-08-03T07:07:25.849Z,73.19
2022-08-03T07:08:33.397Z,72.69
2022-08-03T07:09:26.530Z,72.29
2022-08-03T07:10:25.563Z,72.69
2022-08-03T07:11:25.555Z,72.78
2022-08-03T07:12:25.510Z,71.95
2022-08-03T07:13:25.632Z,72.05
2022-08-03T07:14:25.706Z,72.16
2022-08-03T07:15:55.343Z,72.16
2022-08-03T07:16:27.535Z,72.16
2022-08-03T07:17:25.493Z,71.26
2022-08-03T07:18:29.578Z,71.12
2022-08-03T07:19:25.426Z,71.22
2022-08-03T07:20:26.514Z,71.22
2022-08-03T07:21:27.103Z,71.42
2022-08-03T07:22:25.693Z,71.19
2022-08-03T07:23:25.811Z,70.39
2022-08-03T07:24:25.384Z,69.69
2022-08-03T07:25:25.373Z,69.29
2022-08-03T07:26:25.380Z,69.49
2022-08-03T07:27:25.334Z,69.96
2022-08-03T07:28:25.347Z,68.37
2022-08-03T07:29:25.410Z,68.86
2022-08-03T07:30:25.275Z,68.76
2022-08-03T07:31:25.307Z,68.96
2022-08-03T07:32:25.378Z,68.83
2022-08-03T07:33:25.213Z,68.63
2022-08-03T07:34:25.253Z,68.73
2022-08-03T07:35:25.573Z,67.30
2022-08-03T07:36:25.163Z,68.30
2022-08-03T07:37:25.426Z,67.60
2022-08-03T07:38:25.176Z,68.20
2022-08-03T07:39:25.169Z,66.77
2022-08-03T07:40:31.757Z,66.27
2022-08-03T07:41:26.154Z,66.57
2022-08-03T07:42:25.885Z,66.97
2022-08-03T07:43:25.173Z,66.35
2022-08-03T07:44:25.086Z,67.74
2022-08-03T07:45:25.089Z,67.14
2022-08-03T07:46:25.081Z,66.51
2022-08-03T07:47:25.082Z,65.61
2022-08-03T07:48:26.026Z,65.81
2022-08-03T07:49:26.059Z,65.91
2022-08-03T07:50:25.008Z,65.48
2022-08-03T07:51:25.949Z,65.28
2022-08-03T07:52:28.302Z,64.19
2022-08-03T07:53:25.035Z,64.79
2022-08-03T07:54:24.962Z,64.66
2022-08-03T07:55:25.071Z,64.66
2022-08-03T07:56:25.200Z,64.06
2022-08-03T07:57:25.111Z,64.46
2022-08-03T07:58:24.968Z,64.16
2022-08-03T07:59:24.889Z,63.24
2022-08-03T08:00:24.940Z,62.24
2022-08-03T08:01:25.365Z,62.45
2022-08-03T08:02:24.949Z,62.51
2022-08-03T08:03:25.095Z,63.01
2022-08-03T08:04:24.859Z,62.98
2022-08-03T08:05:24.868Z,62.58
2022-08-03T08:06:24.933Z,61.79
2022-08-03T08:07:24.839Z,61.79
2022-08-03T08:08:25.234Z,61.07
2022-08-03T08:09:24.920Z,60.47
2022-08-03T08:10:24.759Z,59.58
2022-08-03T08:11:24.757Z,57.79
2022-08-03T08:12:24.716Z,60.27
2022-08-03T08:13:24.724Z,58.36
2022-08-03T08:14:24.864Z,58.16
2022-08-03T08:15:24.736Z,56.08
2022-08-03T08:16:24.715Z,56.74
2022-08-03T08:17:24.672Z,57.04
2022-08-03T08:18:24.787Z,56.95
2022-08-03T08:19:24.621Z,56.02
2022-08-03T08:20:30.465Z,54.84
2022-08-03T08:21:25.658Z,55.33
2022-08-03T08:22:30.073Z,53.42
2022-08-03T08:23:42.799Z,53.23
2022-08-03T08:24:25.673Z,53.20
2022-08-03T08:25:24.891Z,52.71
2022-08-03T08:26:24.606Z,51.03
2022-08-03T08:27:24.513Z,50.41
2022-08-03T08:28:32.666Z,50.71
2022-08-03T08:29:25.905Z,51.20
2022-08-03T08:30:24.602Z,51.67
2022-08-03T08:31:25.438Z,48.21
2022-08-03T08:32:25.146Z,46.93
2022-08-03T08:33:25.864Z,46.83
2022-08-03T08:34:25.491Z,47.22
2022-08-03T08:35:24.725Z,48.19
2022-08-03T08:36:24.392Z,48.49
2022-08-03T08:37:24.410Z,48.88
2022-08-03T08:38:25.068Z,48.07
2022-08-03T08:39:24.355Z,48.46
2022-08-03T08:40:24.451Z,46.98
2022-08-03T08:41:24.620Z,46.39
2022-08-03T08:42:25.339Z,47.28
2022-08-03T08:43:24.337Z,47.18
2022-08-03T08:44:24.484Z,47.18
2022-08-03T08:45:25.128Z,46.59
2022-08-03T08:46:24.402Z,46.37
2022-08-03T08:47:24.345Z,46.76
2022-08-03T08:48:25.093Z,46.37
2022-08-03T08:49:25.376Z,46.25
2022-08-03T08:50:27.715Z,45.26
2022-08-03T08:51:24.321Z,46.15
2022-08-03T08:52:32.029Z,46.42
2022-08-03T08:53:27.167Z,47.21
2022-08-03T08:54:24.171Z,47.19
2022-08-03T08:55:28.609Z,48.47
2022-08-03T08:56:24.159Z,46.40
2022-08-03T08:57:41.804Z,46.77
2022-08-03T08:58:28.588Z,47.26
2022-08-03T08:59:25.345Z,47.26
2022-08-03T09:00:24.116Z,47.66
2022-08-03T09:01:26.939Z,43.71
2022-08-03T09:02:24.066Z,44.68
2022-08-03T09:03:29.582Z,43.89
2022-08-03T09:04:25.174Z,44.58
2022-08-03T09:05:36.228Z,43.70
2022-08-03T09:06:25.082Z,43.50
2022-08-03T09:07:25.004Z,42.81
2022-08-03T09:08:23.996Z,43.50
2022-08-03T09:10:05.277Z,42.79
2022-08-03T09:10:26.234Z,41.80
2022-08-03T09:11:52.470Z,42.99
2022-08-03T09:12:42.253Z,45.72
2022-08-03T09:13:24.969Z,43.36
2022-08-03T09:14:39.367Z,41.49
2022-08-03T09:15:24.949Z,41.67
2022-08-03T09:16:24.600Z,42.06
2022-08-03T09:17:23.897Z,42.94
2022-08-03T09:18:23.870Z,43.32
2022-08-03T09:19:25.298Z,41.06
2022-08-03T09:20:24.628Z,41.14
2022-08-03T09:21:31.589Z,42.71
2022-08-03T09:22:25.070Z,42.90
2022-08-03T09:24:00.708Z,41.11
2022-08-03T09:24:40.833Z,40.13
2022-08-03T09:25:25.730Z,41.90
2022-08-03T09:26:23.770Z,39.84
2022-08-03T09:27:26.154Z,40.03
2022-08-03T09:28:32.279Z,41.61
2022-08-03T09:29:26.172Z,43.37
2022-08-03T09:30:34.487Z,42.90
2022-08-03T09:31:24.738Z,43.47
2022-08-03T09:32:23.764Z,43.66
2022-08-03T09:33:24.587Z,44.26
2022-08-03T09:34:24.715Z,40.92
2022-08-03T09:35:27.978Z,41.11
2022-08-03T09:36:25.588Z,41.58
2022-08-03T09:37:23.611Z,42.76
2022-08-03T09:38:24.725Z,41.09
2022-08-03T09:39:40.249Z,42.05
2022-08-03T09:40:24.872Z,41.76
2022-08-03T09:41:23.642Z,40.68
2022-08-03T09:42:24.163Z,42.35
2022-08-03T09:43:24.537Z,43.99
2022-08-03T09:44:25.407Z,42.52
2022-08-03T09:45:23.559Z,40.76
2022-08-03T09:46:23.880Z,42.43
2022-08-03T09:47:28.030Z,42.62
2022-08-03T09:48:23.495Z,42.80
2022-08-03T09:49:23.780Z,41.03
2022-08-03T09:50:23.504Z,41.42
2022-08-03T09:51:33.273Z,37.98
2022-08-03T09:52:32.074Z,37.29
2022-08-03T09:53:24.405Z,38.29
2022-08-03T09:54:23.462Z,39.76
2022-08-03T09:56:32.864Z,41.42
2022-08-03T09:56:35.802Z,38.68
2022-08-03T09:57:24.708Z,38.80
2022-08-03T09:58:23.845Z,40.35
2022-08-03T09:59:24.334Z,40.25
2022-08-03T10:00:23.449Z,41.80
2022-08-03T10:01:24.009Z,42.38
2022-08-03T10:02:24.297Z,41.11
2022-08-03T10:03:23.388Z,41.39
2022-08-03T10:04:23.309Z,40.80
2022-08-03T10:05:23.281Z,42.46
2022-08-03T10:06:28.735Z,40.11
2022-08-03T10:07:23.238Z,39.90
2022-08-03T10:08:40.850Z,39.92
2022-08-03T10:09:26.114Z,38.26
2022-08-03T10:10:30.013Z,40.90
2022-08-03T10:11:24.176Z,41.58
2022-08-03T10:12:23.189Z,39.80
2022-08-03T10:13:23.161Z,39.61
2022-08-03T10:14:23.177Z,38.51
2022-08-03T10:16:21.867Z,40.37
2022-08-03T10:16:25.658Z,38.12
2022-08-03T10:17:23.207Z,38.40
2022-08-03T10:18:23.492Z,38.98
2022-08-03T10:19:23.100Z,37.12
2022-08-03T10:20:26.997Z,38.38
2022-08-03T10:21:23.191Z,35.85
2022-08-03T10:22:23.102Z,35.56
2022-08-03T10:23:23.400Z,35.48
2022-08-03T10:24:23.305Z,36.65
2022-08-03T10:25:22.991Z,39.00
2022-08-03T10:26:24.911Z,37.24
2022-08-03T10:27:23.229Z,40.25
2022-08-03T10:28:23.029Z,39.28
2022-08-03T10:29:25.674Z,35.17
2022-08-03T10:30:26.270Z,35.25
2022-08-03T10:31:23.186Z,38.38
2022-08-03T10:32:23.082Z,37.70
2022-08-03T10:33:51.149Z,38.38
2022-08-03T10:34:23.967Z,37.11
2022-08-03T10:35:25.679Z,38.06
2022-08-03T10:36:22.961Z,36.41
2022-08-03T10:37:23.201Z,37.38
2022-08-03T10:38:22.878Z,34.94
2022-08-03T10:39:22.830Z,36.90
2022-08-03T10:40:33.399Z,38.16
2022-08-03T10:41:25.571Z,35.53
2022-08-03T10:42:22.928Z,37.07
2022-08-03T10:43:22.826Z,34.92
2022-08-03T10:44:22.810Z,34.92
2022-08-03T10:45:22.816Z,36.57
2022-08-03T10:46:22.741Z,35.98
2022-08-03T10:47:23.490Z,35.78
2022-08-03T10:48:22.718Z,34.59
2022-08-03T10:49:34.301Z,33.72
2022-08-03T10:50:23.684Z,35.08
2022-08-03T10:51:22.666Z,35.96
2022-08-03T10:52:32.580Z,33.82
2022-08-03T10:53:23.697Z,34.01
2022-08-03T10:54:22.668Z,34.50
2022-08-03T10:55:22.730Z,34.11
2022-08-03T10:56:28.642Z,33.53
2022-08-03T10:57:25.648Z,32.84
2022-08-03T10:58:30.486Z,34.31
2022-08-03T10:59:27.664Z,34.58
2022-08-03T11:00:22.678Z,34.58
2022-08-03T11:01:22.659Z,33.53
2022-08-03T11:02:22.580Z,34.34
2022-08-03T11:03:22.560Z,32.87
2022-08-03T11:04:22.534Z,36.39
2022-08-03T11:05:22.552Z,38.73
2022-08-03T11:06:23.287Z,33.65
2022-08-03T11:07:22.786Z,32.40
2022-08-03T11:08:22.635Z,36.41
2022-08-03T11:09:27.179Z,36.90
2022-08-03T11:10:23.303Z,36.70
2022-08-03T11:11:22.472Z,36.10
2022-08-03T11:12:22.435Z,37.27
2022-08-03T11:13:23.461Z,32.97
2022-08-03T11:14:23.336Z,35.80
2022-08-03T11:15:22.460Z,34.44
2022-08-03T11:16:24.280Z,36.19
2022-08-03T11:17:23.199Z,33.75
2022-08-03T11:18:26.821Z,34.53
2022-08-03T11:19:22.510Z,35.80
2022-08-03T11:20:22.340Z,35.61
2022-08-03T11:21:22.401Z,38.14
2022-08-03T11:22:22.587Z,32.78
2022-08-03T11:24:02.889Z,33.48
2022-08-03T11:24:23.366Z,32.60
2022-08-03T11:26:31.456Z,33.28
2022-08-03T11:27:31.428Z,36.51
2022-08-03T11:28:31.479Z,37.09
2022-08-03T11:29:31.420Z,36.29
2022-08-03T11:30:31.402Z,36.00
2022-08-03T11:32:32.379Z,34.12
2022-08-03T11:33:31.352Z,34.69
2022-08-03T11:34:31.411Z,34.89
2022-08-03T11:35:31.332Z,36.04
2022-08-03T11:36:32.399Z,32.43
2022-08-03T11:37:33.377Z,33.88
2022-08-03T11:38:31.294Z,31.66
2022-08-03T11:39:31.295Z,36.71
2022-08-03T11:40:31.274Z,36.02
2022-08-03T11:41:31.269Z,30.11
2022-08-03T11:42:32.206Z,32.39
2022-08-03T11:43:32.197Z,33.77
2022-08-03T11:44:31.227Z,36.60
2022-08-03T11:45:31.214Z,34.06
2022-08-03T11:46:32.157Z,37.17
2022-08-03T11:47:31.189Z,35.80
2022-08-03T11:48:31.169Z,35.10
2022-08-03T11:49:31.214Z,34.12
2022-08-03T11:50:31.201Z,34.01
2022-08-03T11:51:31.141Z,33.23
2022-08-03T11:52:31.122Z,33.06
2022-08-03T11:53:31.111Z,35.57
2022-08-03T11:54:31.102Z,34.01
2022-08-03T11:55:32.126Z,33.12
2022-08-03T11:56:31.157Z,34.19
2022-08-03T11:59:10.817Z,33.49
2022-08-03T11:59:12.829Z,33.49
2022-08-03T11:59:33.004Z,35.52
2022-08-03T12:00:31.030Z,34.16
2022-08-03T12:01:31.025Z,29.99
2022-08-03T12:02:30.996Z,32.05
2022-08-03T12:03:31.102Z,33.12
2022-08-03T12:04:31.959Z,31.20
2022-08-03T12:05:30.976Z,31.98
2022-08-03T12:06:30.949Z,31.99
2022-08-03T12:08:03.970Z,31.72
2022-08-03T12:08:31.937Z,31.52
2022-08-03T12:09:31.878Z,31.52
2022-08-03T12:10:30.901Z,32.31
2022-08-03T12:11:30.891Z,33.85
2022-08-03T12:12:30.874Z,30.62
2022-08-03T12:14:30.063Z,31.40
2022-08-03T12:14:49.020Z,30.44
2022-08-03T12:15:31.843Z,29.95
2022-08-03T12:16:30.823Z,31.22
2022-08-03T12:17:30.824Z,32.76
2022-08-03T12:18:30.815Z,32.76
2022-08-03T12:19:31.765Z,34.11
2022-08-03T12:20:31.276Z,28.65
2022-08-03T12:21:30.773Z,28.65
2022-08-03T12:22:31.556Z,27.87
2022-08-03T12:23:32.872Z,29.22
2022-08-03T12:24:31.738Z,31.16
2022-08-03T12:25:38.542Z,29.61
2022-08-03T12:26:31.719Z,29.60
2022-08-03T12:27:30.699Z,31.35
2022-08-03T12:28:36.674Z,32.79
2022-08-03T12:29:31.683Z,30.55
2022-08-03T12:30:32.639Z,30.17
2022-08-03T12:31:30.652Z,31.41
2022-08-03T12:32:30.631Z,28.69
2022-08-03T12:33:30.641Z,32.39
2022-08-03T12:34:30.845Z,31.61
2022-08-03T12:35:30.609Z,31.32
2022-08-03T12:36:30.583Z,27.90
2022-08-03T12:37:30.836Z,29.05
2022-08-03T12:38:30.564Z,31.68
2022-08-03T12:39:31.648Z,30.71
2022-08-03T12:40:31.993Z,30.61
2022-08-03T12:41:30.539Z,30.59
2022-08-03T12:42:30.517Z,29.44
2022-08-03T12:43:39.375Z,30.12
2022-08-03T12:44:31.488Z,30.41
2022-08-03T12:45:30.483Z,30.12
2022-08-03T12:46:30.469Z,30.22
2022-08-03T12:47:30.469Z,27.98
2022-08-03T12:48:30.439Z,27.14
2022-08-03T12:49:30.608Z,30.25
2022-08-03T12:50:31.439Z,29.18
2022-08-03T12:51:30.478Z,28.42
2022-08-03T12:52:30.403Z,31.81
2022-08-03T12:53:30.392Z,28.30
2022-08-03T12:54:30.371Z,30.04
2022-08-03T12:55:30.365Z,29.85